Time;durP1;ratioP1;P1;durP2;ratioP2;P2;SDS_P1;SDS_P2;PMS_P1;PMS_P2;Temp;Humidity;BMP_temperature;BMP_pressure;BME280_temperature;BME280_humidity;BME280_pressure;Samples;Min_cycle;Max_cycle;Signal;HPM_P1;HPM_P2
2022/05/05 00:01:38;;;;;;;1999.90;999.90;;;12.00;99.90;;;;;;4897355;29;20052;-79
2022/05/05 00:04:04;;;;;;;1999.90;999.90;;;11.90;99.90;;;;;;4879683;29;20032;-80
2022/05/05 00:06:30;;;;;;;1999.90;999.90;;;11.90;99.90;;;;;;4887323;29;20097;-79
2022/05/05 00:08:56;;;;;;;1999.90;999.90;;;11.90;99.90;;;;;;4888596;29;20029;-79
2022/05/05 00:14:25;;;;;;;1999.90;999.90;;;11.80;99.90;;;;;;4891941;29;20067;-80
2022/05/05 00:16:51;;;;;;;1999.90;999.90;;;11.70;99.90;;;;;;4893187;29;20039;-80
2022/05/05 00:19:16;;;;;;;1999.90;999.90;;;11.60;99.90;;;;;;4897398;29;20028;-79
2022/05/05 00:21:42;;;;;;;1999.90;999.90;;;11.60;99.90;;;;;;4897783;29;20040;-79
2022/05/05 00:24:08;;;;;;;1999.90;999.90;;;11.60;99.90;;;;;;4898345;29;20033;-79
2022/05/05 00:26:34;;;;;;;1999.90;999.90;;;11.50;99.90;;;;;;4888811;29;20108;-80
2022/05/05 00:29:00;;;;;;;1999.90;999.90;;;11.50;99.90;;;;;;4879367;29;20446;-79
2022/05/05 00:31:26;;;;;;;1999.90;999.90;;;11.40;99.90;;;;;;4879142;29;20041;-79
2022/05/05 00:33:52;;;;;;;1999.90;999.90;;;11.40;99.90;;;;;;4878043;29;20037;-79
2022/05/05 00:36:17;;;;;;;1999.90;999.90;;;11.40;99.90;;;;;;4879912;29;20041;-79
2022/05/05 00:38:43;;;;;;;1999.90;999.90;;;11.40;99.90;;;;;;4887072;29;20036;-80
2022/05/05 00:41:09;;;;;;;1999.90;999.90;;;11.50;99.90;;;;;;4881315;29;20021;-79
2022/05/05 00:43:35;;;;;;;1999.90;999.90;;;11.50;99.90;;;;;;4888394;29;20507;-79
2022/05/05 00:46:02;;;;;;;1999.90;999.90;;;11.50;99.90;;;;;;4879172;29;20081;-79
2022/05/05 00:48:28;;;;;;;1999.90;999.90;;;11.50;99.90;;;;;;4878177;29;20021;-79
2022/05/05 00:50:55;;;;;;;1999.90;999.90;;;11.50;99.90;;;;;;4891842;29;20380;-79
2022/05/05 00:53:21;;;;;;;1999.90;999.90;;;11.50;99.90;;;;;;4878516;29;20025;-80
2022/05/05 00:55:51;;;;;;;1999.90;999.90;;;11.40;99.90;;;;;;4887008;29;20025;-79
2022/05/05 00:58:18;;;;;;;1999.90;999.90;;;11.40;99.90;;;;;;4897831;29;20107;-80
2022/05/05 01:00:44;;;;;;;1999.90;999.90;;;11.30;99.90;;;;;;4897202;29;20111;-80
2022/05/05 01:03:15;;;;;;;1999.90;999.90;;;11.30;99.90;;;;;;4898024;29;20025;-79
2022/05/05 01:05:41;;;;;;;1999.90;999.90;;;11.30;99.90;;;;;;4897466;29;20033;-79
2022/05/05 01:08:07;;;;;;;1999.90;999.90;;;11.30;99.90;;;;;;4881613;29;20036;-79
2022/05/05 01:10:33;;;;;;;1999.90;999.90;;;11.20;99.90;;;;;;4879012;29;20140;-79
2022/05/05 01:13:01;;;;;;;1999.90;999.90;;;11.20;99.90;;;;;;4892096;29;20148;-79
2022/05/05 01:15:29;;;;;;;1999.90;999.90;;;11.20;99.90;;;;;;4896980;29;20189;-79
2022/05/05 01:17:54;;;;;;;1999.90;999.90;;;11.20;99.90;;;;;;4898166;29;20017;-79
2022/05/05 01:20:24;;;;;;;1999.90;999.90;;;11.20;99.90;;;;;;4896970;29;20055;-79
2022/05/05 01:22:50;;;;;;;1999.90;999.90;;;11.20;99.90;;;;;;4898154;29;20024;-79
2022/05/05 01:28:13;;;;;;;1999.90;999.90;;;11.20;99.90;;;;;;4878670;29;20063;-79
2022/05/05 01:30:43;;;;;;;1999.90;999.90;;;11.20;99.90;;;;;;4879062;29;20507;-79
2022/05/05 01:33:30;;;;;;;1999.90;999.90;;;11.10;99.90;;;;;;4878748;29;20032;-79
2022/05/05 01:35:58;;;;;;;1999.90;999.90;;;11.10;99.90;;;;;;4879053;29;20033;-79
2022/05/05 01:38:26;;;;;;;1999.90;999.90;;;11.00;99.90;;;;;;4892279;29;20033;-80
2022/05/05 01:40:51;;;;;;;1999.90;999.90;;;11.00;99.90;;;;;;4878811;29;20037;-79
2022/05/05 01:43:19;;;;;;;1999.90;999.90;;;11.00;99.90;;;;;;4881563;29;20033;-79
2022/05/05 01:45:46;;;;;;;1999.90;999.90;;;10.90;99.90;;;;;;4891685;29;20405;-79
2022/05/05 01:48:13;;;;;;;1999.90;999.90;;;10.80;99.90;;;;;;4897668;29;20103;-79
2022/05/05 01:50:39;;;;;;;1999.90;999.90;;;10.80;99.90;;;;;;4890416;29;20116;-80
2022/05/05 01:53:05;;;;;;;1999.90;999.90;;;10.80;99.90;;;;;;4880628;29;20029;-79
2022/05/05 01:55:33;;;;;;;1999.90;999.90;;;10.80;99.90;;;;;;4891259;29;20105;-79
2022/05/05 01:58:00;;;;;;;1999.90;999.90;;;10.80;99.90;;;;;;4900711;29;20020;-78
2022/05/05 02:00:26;;;;;;;1999.90;999.90;;;10.80;99.90;;;;;;4900754;29;20071;-79
2022/05/05 02:02:53;;;;;;;1999.90;999.90;;;10.80;99.90;;;;;;4890171;29;20072;-79
2022/05/05 02:05:19;;;;;;;1999.90;999.90;;;10.80;99.90;;;;;;4900046;29;20408;-79
2022/05/05 02:07:46;;;;;;;1999.90;999.90;;;10.80;99.90;;;;;;4888443;29;20557;-79
2022/05/05 02:10:16;;;;;;;1999.90;999.90;;;10.90;99.90;;;;;;4881823;29;20046;-79
2022/05/05 02:12:46;;;;;;;1999.90;999.90;;;10.90;99.90;;;;;;4891175;29;20072;-79
2022/05/05 02:15:13;;;;;;;1999.90;999.90;;;10.90;99.90;;;;;;4902335;29;20152;-79
2022/05/05 02:17:41;;;;;;;1999.90;999.90;;;10.90;99.90;;;;;;4900003;29;20029;-79
2022/05/05 02:20:08;;;;;;;1999.90;999.90;;;10.90;99.90;;;;;;4896235;29;20052;-79
2022/05/05 02:22:34;;;;;;;1999.90;999.90;;;10.80;99.90;;;;;;4881675;29;20052;-78
2022/05/05 02:25:00;;;;;;;1999.90;999.90;;;10.70;99.90;;;;;;4881448;29;20092;-79
2022/05/05 02:27:26;;;;;;;1999.90;999.90;;;10.70;99.90;;;;;;4892723;29;20120;-79
2022/05/05 02:29:54;;;;;;;1999.90;999.90;;;10.70;99.90;;;;;;4884846;29;20029;-79
2022/05/05 02:32:20;;;;;;;1999.90;999.90;;;10.70;99.90;;;;;;4881163;29;20112;-78
2022/05/05 02:34:46;;;;;;;1999.90;999.90;;;10.70;99.90;;;;;;4881134;29;20165;-79
2022/05/05 02:39:57;;;;;;;1999.90;999.90;;;10.60;99.90;;;;;;4883361;29;20040;-79
2022/05/05 02:42:22;;;;;;;1999.90;999.90;;;10.60;99.90;;;;;;4883585;29;20041;-80
2022/05/05 02:44:48;;;;;;;1999.90;999.90;;;10.60;99.90;;;;;;4880331;29;20488;-79
2022/05/05 02:47:14;;;;;;;1999.90;999.90;;;10.60;99.90;;;;;;4881446;29;20494;-79
2022/05/05 02:49:40;;;;;;;1999.90;999.90;;;10.60;99.90;;;;;;4880705;29;20867;-78
2022/05/05 02:52:07;;;;;;;1999.90;999.90;;;10.70;99.90;;;;;;4879931;29;20044;-79
2022/05/05 02:54:50;;;;;;;1999.90;999.90;;;10.70;99.90;;;;;;4880659;29;20655;-78
2022/05/05 02:57:18;;;;;;;1999.90;999.90;;;10.60;99.90;;;;;;4880950;29;20382;-80
2022/05/05 02:59:44;;;;;;;1999.90;999.90;;;10.60;99.90;;;;;;4891703;29;20096;-79
2022/05/05 03:02:10;;;;;;;1999.90;999.90;;;10.60;99.90;;;;;;4894356;29;20033;-79
2022/05/05 03:04:35;;;;;;;1999.90;999.90;;;10.60;99.90;;;;;;4885658;29;20029;-79
2022/05/05 03:07:02;;;;;;;1999.90;999.90;;;10.60;99.90;;;;;;4892187;29;20049;-80
2022/05/05 03:09:27;;;;;;;1999.90;999.90;;;10.60;99.90;;;;;;4880544;29;20473;-79
2022/05/05 03:11:53;;;;;;;1999.90;999.90;;;10.50;99.90;;;;;;4885330;29;20043;-79
2022/05/05 03:14:18;;;;;;;1999.90;999.90;;;10.50;99.90;;;;;;4896486;29;20032;-79
2022/05/05 03:16:44;;;;;;;1999.90;999.90;;;10.50;99.90;;;;;;4899326;29;20033;-79
2022/05/05 03:19:13;;;;;;;1999.90;999.90;;;10.50;99.90;;;;;;4900882;29;20112;-79
2022/05/05 03:21:38;;;;;;;1999.90;999.90;;;10.40;99.90;;;;;;4899031;29;20549;-80
2022/05/05 03:24:05;;;;;;;1999.90;999.90;;;10.40;99.90;;;;;;4899296;29;20104;-79
2022/05/05 03:26:31;;;;;;;1999.90;999.90;;;10.40;99.90;;;;;;4894795;29;20025;-79
2022/05/05 03:28:57;;;;;;;1999.90;999.90;;;10.30;99.90;;;;;;4878817;29;20021;-78
2022/05/05 03:31:23;;;;;;;1999.90;999.90;;;10.30;99.90;;;;;;4879591;29;20413;-79
2022/05/05 03:33:49;;;;;;;1999.90;999.90;;;10.30;99.90;;;;;;4880468;29;20022;-80
2022/05/05 03:36:15;;;;;;;1999.90;999.90;;;10.20;99.90;;;;;;4880573;29;20048;-79
2022/05/05 03:38:41;;;;;;;1999.90;999.90;;;10.20;99.90;;;;;;4896071;29;20164;-79
2022/05/05 03:41:07;;;;;;;1999.90;999.90;;;10.20;99.90;;;;;;4898812;29;20500;-79
2022/05/05 03:43:33;;;;;;;1999.90;999.90;;;10.10;99.90;;;;;;4894846;29;20029;-78
2022/05/05 03:45:59;;;;;;;1999.90;999.90;;;10.00;99.90;;;;;;4883923;29;20049;-79
2022/05/05 03:48:24;;;;;;;1999.90;999.90;;;10.00;99.90;;;;;;4880256;29;20081;-79
2022/05/05 03:50:50;;;;;;;1999.90;999.90;;;9.90;99.90;;;;;;4879517;29;20039;-79
2022/05/05 03:53:16;;;;;;;1999.90;999.90;;;9.90;99.90;;;;;;4880197;29;20073;-79
2022/05/05 03:55:44;;;;;;;1999.90;999.90;;;9.90;99.90;;;;;;4886618;29;20532;-79
2022/05/05 03:58:10;;;;;;;1999.90;999.90;;;9.90;99.90;;;;;;4897427;29;20052;-79
2022/05/05 04:00:36;;;;;;;1999.90;999.90;;;9.90;99.90;;;;;;4898483;29;20044;-79
2022/05/05 04:06:06;;;;;;;1999.90;999.90;;;9.80;99.90;;;;;;4834820;29;20037;-80
2022/05/05 04:08:33;;;;;;;1999.90;999.90;;;9.80;99.90;;;;;;4840109;29;20522;-79
2022/05/05 04:10:59;;;;;;;1999.90;999.90;;;9.80;99.90;;;;;;4822747;29;20039;-79
2022/05/05 04:13:25;;;;;;;1999.90;999.90;;;9.80;99.90;;;;;;4833458;29;20030;-79
2022/05/05 04:15:51;;;;;;;1999.90;999.90;;;9.80;99.90;;;;;;4839706;29;20079;-79
2022/05/05 04:18:17;;;;;;;1999.90;999.90;;;9.70;99.90;;;;;;4840525;29;20371;-78
2022/05/05 04:20:43;;;;;;;1999.90;999.90;;;9.70;99.90;;;;;;4840011;29;20124;-78
2022/05/05 04:23:10;;;;;;;1999.90;999.90;;;9.60;99.90;;;;;;4821949;29;20510;-79
2022/05/05 04:25:39;;;;;;;1999.90;999.90;;;9.60;99.90;;;;;;4821985;29;20035;-80
2022/05/05 04:28:07;;;;;;;1999.90;999.90;;;9.50;99.90;;;;;;4824806;29;20483;-79
2022/05/05 04:30:32;;;;;;;1999.90;999.90;;;9.50;99.90;;;;;;4822557;29;20125;-79
2022/05/05 04:32:58;;;;;;;1999.90;999.90;;;9.50;99.90;;;;;;4822328;29;20498;-79
2022/05/05 04:35:23;;;;;;;1999.90;999.90;;;9.50;99.90;;;;;;4824033;29;20066;-79
2022/05/05 04:37:49;;;;;;;1999.90;999.90;;;9.40;99.90;;;;;;4884489;29;20050;-79
2022/05/05 04:40:15;;;;;;;1999.90;999.90;;;9.30;99.90;;;;;;4878109;29;20484;-79
2022/05/05 04:42:41;;;;;;;1999.90;999.90;;;9.30;99.90;;;;;;4882988;29;20116;-79
2022/05/05 04:45:07;;;;;;;1999.90;999.90;;;9.30;99.90;;;;;;4879149;29;20053;-79
2022/05/05 04:47:33;;;;;;;1999.90;999.90;;;9.30;99.90;;;;;;4879177;29;20072;-79
2022/05/05 04:49:59;;;;;;;1999.90;999.90;;;9.20;99.90;;;;;;4877397;29;20028;-79
2022/05/05 04:52:24;;;;;;;1999.90;999.90;;;9.20;99.90;;;;;;4889944;29;20017;-80
2022/05/05 04:54:51;;;;;;;1999.90;999.90;;;9.20;99.90;;;;;;4886054;29;20028;-79
2022/05/05 04:57:17;;;;;;;1999.90;999.90;;;9.20;99.90;;;;;;4883828;29;20084;-79
2022/05/05 04:59:42;;;;;;;1999.90;999.90;;;9.20;99.90;;;;;;4897002;29;20107;-79
2022/05/05 05:02:08;;;;;;;1999.90;999.90;;;9.20;99.90;;;;;;4894047;29;20086;-78
2022/05/05 05:04:34;;;;;;;1999.90;999.90;;;9.20;99.90;;;;;;4893808;29;20686;-79
2022/05/05 05:06:59;;;;;;;1999.90;999.90;;;9.30;99.90;;;;;;4890455;29;20127;-80
2022/05/05 05:09:25;;;;;;;1999.90;999.90;;;9.20;99.90;;;;;;4889406;29;20032;-80
2022/05/05 05:11:51;;;;;;;1999.90;999.90;;;9.30;99.90;;;;;;4895281;29;20037;-80
2022/05/05 05:14:16;;;;;;;1999.90;999.90;;;9.30;99.90;;;;;;4890374;29;20025;-79
2022/05/05 05:16:42;;;;;;;1999.90;999.90;;;9.30;99.90;;;;;;4894970;29;20481;-79
2022/05/05 05:19:07;;;;;;;1999.90;999.90;;;9.30;99.90;;;;;;4896800;29;20060;-80
2022/05/05 05:21:33;;;;;;;1999.90;999.90;;;9.30;99.90;;;;;;4893660;29;20459;-79
2022/05/05 05:23:59;;;;;;;1999.90;999.90;;;9.40;99.90;;;;;;4895519;29;20024;-79
2022/05/05 05:26:25;;;;;;;1999.90;999.90;;;9.40;99.90;;;;;;4894409;29;20127;-79
2022/05/05 05:28:50;;;;;;;1999.90;999.90;;;9.40;99.90;;;;;;4895937;29;20032;-79
2022/05/05 05:31:16;;;;;;;1999.90;999.90;;;9.50;99.90;;;;;;4893087;29;20085;-79
2022/05/05 05:33:42;;;;;;;1999.90;999.90;;;9.50;99.90;;;;;;4881655;29;20140;-79
2022/05/05 05:36:08;;;;;;;1999.90;999.90;;;9.60;99.90;;;;;;4891165;29;20055;-79
2022/05/05 05:38:34;;;;;;;1999.90;999.90;;;9.60;99.90;;;;;;4898725;29;20052;-80
2022/05/05 05:41:00;;;;;;;1999.90;999.90;;;9.60;99.90;;;;;;4892355;29;20488;-78
2022/05/05 05:43:26;;;;;;;1999.90;999.90;;;9.70;99.90;;;;;;4883762;29;20064;-80
2022/05/05 05:45:52;;;;;;;1999.90;999.90;;;9.80;99.90;;;;;;4893098;29;20075;-80
2022/05/05 05:48:17;;;;;;;1999.90;999.90;;;9.80;99.90;;;;;;4897722;29;20033;-77
2022/05/05 05:50:43;;;;;;;1999.90;999.90;;;9.90;99.90;;;;;;4896736;29;20040;-78
2022/05/05 05:53:09;;;;;;;1999.90;999.90;;;10.00;99.90;;;;;;4890603;29;20031;-78
2022/05/05 05:55:35;;;;;;;1999.90;999.90;;;10.10;99.90;;;;;;4889988;29;20056;-79
2022/05/05 05:58:03;;;;;;;1999.90;999.90;;;10.10;99.90;;;;;;4890510;29;20044;-80
2022/05/05 06:00:30;;;;;;;1999.90;999.90;;;10.20;99.90;;;;;;4888503;29;20029;-79
2022/05/05 06:05:40;;;;;;;1999.90;999.90;;;10.30;99.90;;;;;;4886455;29;20057;-78
2022/05/05 06:08:05;;;;;;;1999.90;999.90;;;10.50;99.90;;;;;;4898755;29;20037;-80
2022/05/05 06:10:31;;;;;;;1999.90;999.90;;;10.50;99.90;;;;;;4887953;29;20044;-80
2022/05/05 06:12:57;;;;;;;1999.90;999.90;;;10.60;99.90;;;;;;4908612;29;20048;-79
2022/05/05 06:15:23;;;;;;;1999.90;999.90;;;10.70;99.90;;;;;;4906361;29;20024;-79
2022/05/05 06:17:50;;;;;;;1999.90;999.90;;;10.80;99.90;;;;;;4895492;29;20021;-79
2022/05/05 06:20:15;;;;;;;1999.90;999.90;;;10.90;99.90;;;;;;4894509;29;20040;-80
2022/05/05 06:22:41;;;;;;;1999.90;999.90;;;11.00;99.90;;;;;;4900625;29;20029;-79
2022/05/05 06:25:07;;;;;;;1999.90;999.90;;;11.10;99.90;;;;;;4900732;29;20037;-79
2022/05/05 06:27:33;;;;;;;1999.90;999.90;;;11.20;99.90;;;;;;4894488;29;20056;-79
2022/05/05 06:30:01;;;;;;;1999.90;999.90;;;11.30;99.90;;;;;;4886557;29;20063;-80
2022/05/05 06:32:27;;;;;;;1999.90;999.90;;;11.40;99.90;;;;;;4887905;29;20036;-79
2022/05/05 06:34:54;;;;;;;1999.90;999.90;;;11.50;99.90;;;;;;4895866;29;20040;-80
2022/05/05 06:37:19;;;;;;;1999.90;999.90;;;11.60;99.90;;;;;;4897519;29;20036;-79
2022/05/05 06:39:45;;;;;;;1999.90;999.90;;;11.60;99.90;;;;;;4897080;29;20032;-80
2022/05/05 06:42:10;;;;;;;1999.90;999.90;;;11.80;99.90;;;;;;4897198;29;20037;-79
2022/05/05 06:44:36;;;;;;;1999.90;999.90;;;11.80;99.90;;;;;;4894790;29;20036;-78
2022/05/05 06:47:03;;;;;;;1999.90;999.90;;;11.90;99.90;;;;;;4894422;29;20056;-80
2022/05/05 06:49:29;;;;;;;1999.90;999.90;;;12.10;99.90;;;;;;4889800;29;20473;-79
2022/05/05 06:51:54;;;;;;;1999.90;999.90;;;12.20;99.90;;;;;;4896618;29;20029;-78
2022/05/05 06:54:20;;;;;;;1999.90;999.90;;;12.30;99.90;;;;;;4897332;29;20163;-79
2022/05/05 06:56:46;;;;;;;1999.90;999.90;;;12.50;99.90;;;;;;4884962;29;20033;-79
2022/05/05 06:59:11;;;;;;;1999.90;999.90;;;12.60;99.90;;;;;;4892789;29;20468;-79
2022/05/05 07:01:52;;;;;;;1999.90;999.90;;;12.80;99.90;;;;;;4895126;29;20037;-78
2022/05/05 07:07:13;;;;;;;1999.90;999.90;;;13.10;99.90;;;;;;4882952;29;20096;-78
2022/05/05 07:12:26;;;;;;;1999.90;999.90;;;13.30;99.90;;;;;;4881785;29;20125;-80
2022/05/05 07:14:52;;;;;;;1999.90;999.90;;;13.50;99.90;;;;;;4893050;29;20103;-79
2022/05/05 07:17:18;;;;;;;1999.90;999.90;;;13.60;99.90;;;;;;4897817;29;20039;-79
2022/05/05 07:19:44;;;;;;;1999.90;999.90;;;13.70;99.90;;;;;;4889957;29;20044;-78
2022/05/05 07:22:09;;;;;;;1999.90;999.90;;;13.80;99.90;;;;;;4888203;29;20104;-78
2022/05/05 07:24:36;;;;;;;1999.90;999.90;;;14.00;99.90;;;;;;4888580;29;20044;-79
2022/05/05 07:27:03;;;;;;;1999.90;999.90;;;14.10;99.90;;;;;;4891016;29;20028;-79
2022/05/05 07:29:29;;;;;;;1999.90;999.90;;;14.30;99.90;;;;;;4889526;29;20044;-79
2022/05/05 07:31:56;;;;;;;1999.90;999.90;;;14.50;99.90;;;;;;4888038;29;20093;-79
2022/05/05 07:34:22;;;;;;;1999.90;999.90;;;14.60;99.90;;;;;;4891702;29;20052;-79
2022/05/05 07:36:49;;;;;;;1999.90;999.90;;;14.60;99.90;;;;;;4885901;29;20469;-78
2022/05/05 07:39:15;;;;;;;1999.90;999.90;;;14.90;99.90;;;;;;4895325;29;20100;-78
2022/05/05 07:41:40;;;;;;;1999.90;999.90;;;15.10;99.90;;;;;;4883097;29;20032;-78
2022/05/05 07:44:06;;;;;;;1999.90;999.90;;;15.30;99.90;;;;;;4896012;29;20037;-78
2022/05/05 07:46:36;;;;;;;1999.90;999.90;;;15.80;99.90;;;;;;4885510;29;20417;-79
2022/05/05 07:49:06;;;;;;;1999.90;999.90;;;17.30;99.90;;;;;;4885088;29;20079;-79
2022/05/05 07:51:32;;;;;;;1999.90;999.90;;;20.30;98.00;;;;;;4888352;29;20040;-79
2022/05/05 07:56:43;;;;;;;1999.90;999.90;;;22.60;92.10;;;;;;4888587;29;20080;-78
2022/05/05 07:59:09;;;;;;;1999.90;999.90;;;23.70;91.00;;;;;;4884061;29;20033;-78
2022/05/05 08:01:35;;;;;;;1999.90;999.90;;;24.40;90.00;;;;;;4887003;29;20444;-78
2022/05/05 08:04:01;;;;;;;1999.90;999.90;;;24.90;89.80;;;;;;4883718;29;20028;-78
2022/05/05 08:06:26;;;;;;;1999.90;999.90;;;25.40;88.60;;;;;;4894451;29;20029;-78
2022/05/05 08:08:52;;;;;;;1999.90;999.90;;;25.90;86.80;;;;;;4881900;29;20025;-78
2022/05/05 08:11:18;;;;;;;1999.90;999.90;;;25.60;85.60;;;;;;4886365;29;20036;-79
2022/05/05 08:13:44;;;;;;;1999.90;999.90;;;25.50;86.10;;;;;;4895662;29;20033;-78
2022/05/05 08:16:10;;;;;;;1999.90;999.90;;;26.10;85.20;;;;;;4895292;29;20103;-78
2022/05/05 08:18:38;;;;;;;1999.90;999.90;;;27.10;84.00;;;;;;4890732;29;20494;-78
2022/05/05 08:21:09;;;;;;;1999.90;999.90;;;27.00;83.40;;;;;;4887909;29;20514;-79
2022/05/05 08:23:34;;;;;;;1999.90;999.90;;;26.90;81.70;;;;;;4887343;29;20016;-78
2022/05/05 08:28:44;;;;;;;1999.90;999.90;;;27.30;81.60;;;;;;4893439;29;20043;-78
2022/05/05 08:31:10;;;;;;;1999.90;999.90;;;27.60;81.10;;;;;;4880040;29;20045;-79
2022/05/05 08:33:38;;;;;;;1999.90;999.90;;;28.00;80.80;;;;;;4890228;29;20064;-79
2022/05/05 08:36:05;;;;;;;1999.90;999.90;;;27.70;81.10;;;;;;4891685;29;20028;-78
2022/05/05 08:38:31;;;;;;;1999.90;999.90;;;28.40;79.00;;;;;;4890726;29;20039;-79
2022/05/05 08:40:57;;;;;;;1999.90;999.90;;;27.60;78.40;;;;;;4890727;29;20500;-79
2022/05/05 08:43:23;;;;;;;1999.90;999.90;;;28.60;78.40;;;;;;4887339;29;20029;-79
2022/05/05 08:45:51;;;;;;;1999.90;999.90;;;28.80;79.00;;;;;;4891093;29;20064;-79
2022/05/05 08:48:17;;;;;;;1999.90;999.90;;;28.70;78.40;;;;;;4894481;29;20080;-79
2022/05/05 08:50:46;;;;;;;1999.90;999.90;;;28.60;77.70;;;;;;4890771;29;20153;-79
2022/05/05 08:53:15;;;;;;;1999.90;999.90;;;28.70;78.80;;;;;;4896025;29;20029;-78
2022/05/05 08:55:43;;;;;;;1999.90;999.90;;;28.80;77.80;;;;;;4894217;29;20470;-78
2022/05/05 08:58:09;;;;;;;1999.90;999.90;;;28.90;77.10;;;;;;4901189;29;20397;-80
2022/05/05 09:00:36;;;;;;;1999.90;999.90;;;29.00;76.10;;;;;;4885557;29;20035;-79
2022/05/05 09:03:04;;;;;;;1999.90;999.90;;;29.80;76.30;;;;;;4891221;29;20021;-80
2022/05/05 09:05:47;;;;;;;1999.90;999.90;;;29.70;76.10;;;;;;4893384;29;20093;-78
2022/05/05 09:08:25;;;;;;;1999.90;999.90;;;29.70;74.80;;;;;;4887404;29;20115;-78
2022/05/05 09:10:55;;;;;;;1999.90;999.90;;;30.00;75.10;;;;;;4894959;29;20563;-80
2022/05/05 09:13:22;;;;;;;1999.90;999.90;;;30.70;74.30;;;;;;4897198;29;20108;-78
2022/05/05 09:15:47;;;;;;;1999.90;999.90;;;30.30;75.70;;;;;;4895020;29;20337;-78
2022/05/05 09:18:21;;;;;;;1999.90;999.90;;;30.50;75.30;;;;;;4888982;29;20119;-78
2022/05/05 09:20:48;;;;;;;1999.90;999.90;;;30.50;73.90;;;;;;4902904;29;20196;-78
2022/05/05 09:23:30;;;;;;;1999.90;999.90;;;30.60;74.70;;;;;;4895612;29;20040;-79
2022/05/05 09:25:56;;;;;;;1999.90;999.90;;;30.10;74.50;;;;;;4897584;29;20144;-81
2022/05/05 09:28:26;;;;;;;1999.90;999.90;;;30.30;74.50;;;;;;4895512;29;20497;-78
2022/05/05 09:30:53;;;;;;;1999.90;999.90;;;30.40;74.70;;;;;;4896178;29;20024;-77
2022/05/05 09:33:34;;;;;;;1999.90;999.90;;;30.20;73.00;;;;;;4895818;29;20020;-81
2022/05/05 09:36:02;;;;;;;1999.90;999.90;;;30.30;73.70;;;;;;4895503;29;20044;-79
2022/05/05 09:38:57;;;;;;;1999.90;999.90;;;30.80;74.20;;;;;;4896554;29;20050;-79
2022/05/05 09:41:28;;;;;;;1999.90;999.90;;;30.40;71.80;;;;;;4891508;29;20132;-79
2022/05/05 09:43:56;;;;;;;1999.90;999.90;;;30.40;72.90;;;;;;4899286;29;20051;-78
2022/05/05 09:46:28;;;;;;;1999.90;999.90;;;30.80;73.80;;;;;;4903761;29;20296;-80
2022/05/05 09:49:03;;;;;;;;;;;30.80;73.80;;;;;;4896995;29;20493;-80
2022/05/05 09:51:29;;;;;;;1999.90;999.90;;;30.60;73.00;;;;;;4893705;29;19983;-79
2022/05/05 09:59:42;;;;;;;1999.90;999.90;;;30.70;72.10;;;;;;4894584;29;20468;-80
2022/05/05 10:05:17;;;;;;;1999.90;999.90;;;30.70;74.00;;;;;;4879663;29;20036;-80
2022/05/05 10:07:47;;;;;;;1999.90;999.90;;;30.70;71.80;;;;;;4891153;29;20032;-78
2022/05/05 10:10:18;;;;;;;1999.90;999.90;;;31.20;71.60;;;;;;4901241;29;20035;-81
2022/05/05 10:12:47;;;;;;;1999.90;999.90;;;31.30;70.70;;;;;;4897705;29;20078;-78
2022/05/05 10:15:13;;;;;;;1999.90;999.90;;;30.90;72.90;;;;;;4892074;29;20037;-78
2022/05/05 10:17:40;;;;;;;1999.90;999.90;;;30.70;70.90;;;;;;4897503;29;20025;-77
2022/05/05 10:20:12;;;;;;;1999.90;999.90;;;30.40;70.20;;;;;;4895813;29;20032;-79
2022/05/05 10:22:43;;;;;;;;;;;30.20;70.20;;;;;;4895769;29;20123;-78
2022/05/05 10:25:15;;;;;;;1999.90;999.90;;;30.30;70.60;;;;;;4896267;29;20359;-78
2022/05/05 10:27:43;;;;;;;1999.90;999.90;;;30.50;70.50;;;;;;4903971;29;20063;-78
2022/05/05 10:30:34;;;;;;;1999.90;999.90;;;30.50;71.10;;;;;;4899598;29;20445;-76
2022/05/05 10:33:04;;;;;;;1999.90;999.90;;;29.80;70.10;;;;;;4896329;29;20025;-78
2022/05/05 10:35:45;;;;;;;1999.90;999.90;;;29.50;71.20;;;;;;4895684;29;20388;-78
2022/05/05 10:38:42;;;;;;;1999.90;999.90;;;29.40;71.80;;;;;;4901356;29;20044;-78
2022/05/05 10:41:31;;;;;;;1999.90;999.90;;;29.50;71.20;;;;;;4897362;29;20512;-78
2022/05/05 10:44:22;;;;;;;1999.90;999.90;;;29.00;73.40;;;;;;4891648;29;20042;-76
2022/05/05 10:47:02;;;;;;;1999.90;999.90;;;29.00;72.80;;;;;;4889649;29;20060;-76
2022/05/05 10:49:34;;;;;;;1999.90;999.90;;;28.90;73.50;;;;;;4896307;29;20036;-77
2022/05/05 10:52:15;;;;;;;1999.90;999.90;;;29.30;74.80;;;;;;4889062;29;20029;-78
2022/05/05 10:54:48;;;;;;;1999.90;999.90;;;29.90;72.60;;;;;;4880727;29;20084;-78
2022/05/05 10:57:26;;;;;;;1999.90;999.90;;;29.80;72.70;;;;;;4894288;29;20058;-78
2022/05/05 11:00:22;;;;;;;1999.90;999.90;;;30.00;73.00;;;;;;4901368;29;20103;-78
2022/05/05 11:03:14;;;;;;;1999.90;999.90;;;29.90;74.30;;;;;;4886676;29;20349;-77
2022/05/05 11:05:40;;;;;;;;;;;29.30;74.50;;;;;;4876986;29;20374;-78
2022/05/05 11:08:17;;;;;;;1999.90;999.90;;;29.60;73.60;;;;;;4887162;29;19922;-77
2022/05/05 11:13:37;;;;;;;1999.90;999.90;;;29.10;73.70;;;;;;4878446;29;20561;-77
2022/05/05 11:22:17;;;;;;;1999.90;999.90;;;29.50;74.20;;;;;;4880621;29;20884;-77
2022/05/05 11:24:48;;;;;;;1999.90;999.90;;;29.30;74.10;;;;;;4891332;29;20041;-77
2022/05/05 11:27:22;;;;;;;1999.90;999.90;;;29.50;73.10;;;;;;4887599;29;20036;-77
2022/05/05 11:29:51;;;;;;;1999.90;999.90;;;28.90;73.80;;;;;;4886530;29;20079;-76
2022/05/05 11:32:18;;;;;;;1999.90;999.90;;;29.00;73.40;;;;;;4887391;29;20035;-75
2022/05/05 11:34:45;;;;;;;1999.90;999.90;;;29.20;73.70;;;;;;4879242;29;20037;-76
2022/05/05 11:37:11;;;;;;;1999.90;999.90;;;28.10;76.10;;;;;;4894045;29;20152;-77
2022/05/05 11:39:38;;;;;;;1999.90;999.90;;;27.60;76.60;;;;;;4905477;29;20079;-76
2022/05/05 11:42:07;;;;;;;1999.90;999.90;;;27.10;77.70;;;;;;4888723;29;20107;-75
2022/05/05 11:44:40;;;;;;;1999.90;999.90;;;27.00;79.10;;;;;;4893497;29;20039;-76
2022/05/05 11:47:23;;;;;;;1999.90;999.90;;;25.90;79.00;;;;;;5067990;28;20444;-77
2022/05/05 11:49:51;;;;;;;;;;;24.20;81.70;;;;;;5066364;28;20028;-77
2022/05/05 11:52:17;;;;;;;1999.90;999.90;;;23.60;84.80;;;;;;5066437;28;19911;-84
2022/05/05 11:54:47;;;;;;;1999.90;999.90;;;23.80;83.70;;;;;;5066909;28;20128;-75
2022/05/05 11:57:29;;;;;;;1999.90;999.90;;;23.90;84.20;;;;;;5064214;28;20029;-77
2022/05/05 12:02:40;;;;;;;1999.90;999.90;;;23.90;83.30;;;;;;5058722;28;20403;-81
2022/05/05 12:05:08;;;;;;;1999.90;999.90;;;24.30;83.70;;;;;;5062979;28;20037;-76
2022/05/05 12:07:34;;;;;;;1999.90;999.90;;;23.60;84.60;;;;;;5064191;28;20028;-76
2022/05/05 12:10:06;;;;;;;1999.90;999.90;;;23.40;85.30;;;;;;5065018;28;20070;-77
2022/05/05 12:12:41;;;;;;;1999.90;999.90;;;24.30;84.30;;;;;;5060048;28;20533;-79
2022/05/05 12:15:08;;;;;;;1999.90;999.90;;;24.60;83.80;;;;;;5065937;28;20394;-77
2022/05/05 12:17:45;;;;;;;1999.90;999.90;;;23.90;85.60;;;;;;5066954;28;20033;-76
2022/05/05 12:20:15;;;;;;;1999.90;999.90;;;23.90;84.00;;;;;;5066251;28;20029;-80
2022/05/05 12:22:42;;;;;;;1999.90;999.90;;;24.00;83.70;;;;;;5064708;28;20526;-77
2022/05/05 12:25:16;;;;;;;1999.90;999.90;;;23.90;85.50;;;;;;5066845;28;20073;-80
2022/05/05 12:28:05;;;;;;;1999.90;999.90;;;23.90;84.90;;;;;;5057440;28;20029;-81
2022/05/05 12:30:40;;;;;;;1999.90;999.90;;;24.10;84.20;;;;;;5055458;28;20416;-76
2022/05/05 12:33:17;;;;;;;1999.90;999.90;;;23.40;86.70;;;;;;5066706;28;20033;-75
2022/05/05 12:35:46;;;;;;;1999.90;999.90;;;22.70;87.50;;;;;;5065235;28;20056;-76
2022/05/05 12:38:14;;;;;;;1999.90;999.90;;;21.90;90.50;;;;;;5068112;28;20091;-80
2022/05/05 12:40:42;;;;;;;1999.90;999.90;;;22.20;90.00;;;;;;5063531;28;20499;-79
2022/05/05 12:43:17;;;;;;;1999.90;999.90;;;22.70;87.70;;;;;;5059417;28;20430;-74
2022/05/05 12:46:08;;;;;;;1999.90;999.90;;;21.70;90.10;;;;;;5060349;28;20053;-76
2022/05/05 12:48:39;;;;;;;1999.90;999.90;;;22.70;89.90;;;;;;5063480;28;20021;-76
2022/05/05 12:51:17;;;;;;;1999.90;999.90;;;22.60;88.00;;;;;;5064801;28;20070;-77
2022/05/05 13:01:57;;;;;;;1999.90;999.90;;;22.30;90.30;;;;;;5052595;28;20040;-75